sensor_id;sensor_type;location;lat;lon;timestamp;pressure;altitude;pressure_sealevel;temperature;humidity
55263;BME280;41125;48.752;9.168;2023-07-13T00:00:13;96828.47;;;19.05;57.34
55263;BME280;41125;48.752;9.168;2023-07-13T00:00:47;96827.22;;;19.03;57.32
55263;BME280;41125;48.752;9.168;2023-07-13T00:01:18;96835.81;;;19.01;57.41
55263;BME280;41125;48.752;9.168;2023-07-13T00:01:50;96829.53;;;19.01;57.45
55263;BME280;41125;48.752;9.168;2023-07-13T00:02:21;96830.31;;;19.01;57.53
55263;BME280;41125;48.752;9.168;2023-07-13T00:02:53;96829.25;;;19.06;56.92
55263;BME280;41125;48.752;9.168;2023-07-13T00:03:24;96826.94;;;19.08;56.67
55263;BME280;41125;48.752;9.168;2023-07-13T00:03:59;96823.94;;;19.13;56.64
55263;BME280;41125;48.752;9.168;2023-07-13T00:04:30;96828.31;;;19.14;56.45
55263;BME280;41125;48.752;9.168;2023-07-13T00:05:02;96818.91;;;19.15;56.21
55263;BME280;41125;48.752;9.168;2023-07-13T00:05:34;96818.91;;;19.15;56.03
55263;BME280;41125;48.752;9.168;2023-07-13T00:06:05;96812.81;;;19.22;55.48
55263;BME280;41125;48.752;9.168;2023-07-13T00:06:36;96811.31;;;19.24;55.41
55263;BME280;41125;48.752;9.168;2023-07-13T00:07:08;96809.72;;;19.23;55.51
55263;BME280;41125;48.752;9.168;2023-07-13T00:07:40;96816.81;;;19.24;55.64
55263;BME280;41125;48.752;9.168;2023-07-13T00:08:12;96806.59;;;19.25;55.48
55263;BME280;41125;48.752;9.168;2023-07-13T00:08:43;96812.91;;;19.25;55.33
55263;BME280;41125;48.752;9.168;2023-07-13T00:09:16;96823.00;;;19.21;55.51
55263;BME280;41125;48.752;9.168;2023-07-13T00:09:48;96816.59;;;19.17;55.45
55263;BME280;41125;48.752;9.168;2023-07-13T00:10:19;96827.59;;;19.17;55.63
55263;BME280;41125;48.752;9.168;2023-07-13T00:10:52;96827.59;;;19.17;55.03
55263;BME280;41125;48.752;9.168;2023-07-13T00:11:25;96819.72;;;19.16;55.13
55263;BME280;41125;48.752;9.168;2023-07-13T00:11:57;96819.59;;;19.12;55.59
55263;BME280;41125;48.752;9.168;2023-07-13T00:12:33;96821.19;;;19.13;55.51
55263;BME280;41125;48.752;9.168;2023-07-13T00:13:05;96816.84;;;19.12;55.60
55263;BME280;41125;48.752;9.168;2023-07-13T00:13:36;96814.91;;;19.13;55.41
55263;BME280;41125;48.752;9.168;2023-07-13T00:14:11;96812.59;;;19.15;55.14
55263;BME280;41125;48.752;9.168;2023-07-13T00:14:42;96813.41;;;19.15;55.19
55263;BME280;41125;48.752;9.168;2023-07-13T00:15:19;96816.84;;;19.12;55.07
55263;BME280;41125;48.752;9.168;2023-07-13T00:15:53;96806.31;;;19.14;54.44
55263;BME280;41125;48.752;9.168;2023-07-13T00:16:25;96813.41;;;19.15;54.68
55263;BME280;41125;48.752;9.168;2023-07-13T00:16:56;96814.56;;;19.14;54.87
55263;BME280;41125;48.752;9.168;2023-07-13T00:17:28;96800.09;;;19.17;54.23
55263;BME280;41125;48.752;9.168;2023-07-13T00:17:59;96806.06;;;19.19;54.14
55263;BME280;41125;48.752;9.168;2023-07-13T00:18:31;96800.66;;;19.23;54.11
55263;BME280;41125;48.752;9.168;2023-07-13T00:19:03;96806.97;;;19.23;53.82
55263;BME280;41125;48.752;9.168;2023-07-13T00:19:34;96801.81;;;19.22;54.22
55263;BME280;41125;48.752;9.168;2023-07-13T00:20:09;96802.59;;;19.22;53.47
55263;BME280;41125;48.752;9.168;2023-07-13T00:20:40;96793.66;;;19.25;53.52
55263;BME280;41125;48.752;9.168;2023-07-13T00:21:12;96799.16;;;19.25;53.14
55263;BME280;41125;48.752;9.168;2023-07-13T00:21:43;96800.22;;;19.21;53.74
55263;BME280;41125;48.752;9.168;2023-07-13T00:22:15;96810.31;;;19.17;53.77
55263;BME280;41125;48.752;9.168;2023-07-13T00:22:46;96808.69;;;19.16;54.01
55263;BME280;41125;48.752;9.168;2023-07-13T00:23:18;96813.41;;;19.15;54.08
55263;BME280;41125;48.752;9.168;2023-07-13T00:23:49;96808.94;;;19.11;53.81
55263;BME280;41125;48.752;9.168;2023-07-13T00:24:21;96805.28;;;19.06;53.91
55263;BME280;41125;48.752;9.168;2023-07-13T00:24:55;96811.88;;;19.02;54.45
55263;BME280;41125;48.752;9.168;2023-07-13T00:25:29;96814.16;;;19.00;54.40
55263;BME280;41125;48.752;9.168;2023-07-13T00:26:04;96814.41;;;18.95;54.39
55263;BME280;41125;48.752;9.168;2023-07-13T00:26:36;96810.41;;;18.92;54.60
55263;BME280;41125;48.752;9.168;2023-07-13T00:27:10;96813.97;;;18.93;54.53
55263;BME280;41125;48.752;9.168;2023-07-13T00:27:43;96815.91;;;18.92;54.13
55263;BME280;41125;48.752;9.168;2023-07-13T00:28:14;96817.41;;;18.90;54.41
55263;BME280;41125;48.752;9.168;2023-07-13T00:28:46;96818.66;;;18.92;54.70
55263;BME280;41125;48.752;9.168;2023-07-13T00:29:17;96815.91;;;18.92;54.21
55263;BME280;41125;48.752;9.168;2023-07-13T00:29:49;96815.44;;;18.90;54.37
55263;BME280;41125;48.752;9.168;2023-07-13T00:30:20;96819.69;;;18.88;54.64
55263;BME280;41125;48.752;9.168;2023-07-13T00:30:51;96819.25;;;18.86;54.76
55263;BME280;41125;48.752;9.168;2023-07-13T00:31:23;96816.03;;;18.84;54.70
55263;BME280;41125;48.752;9.168;2023-07-13T00:31:54;96824.97;;;18.81;55.14
55263;BME280;41125;48.752;9.168;2023-07-13T00:32:25;96816.28;;;18.79;54.94
55263;BME280;41125;48.752;9.168;2023-07-13T00:32:57;96815.37;;;18.74;55.39
55263;BME280;41125;48.752;9.168;2023-07-13T00:33:29;96817.31;;;18.74;54.85
55263;BME280;41125;48.752;9.168;2023-07-13T00:34:00;96819.38;;;18.77;54.73
55263;BME280;41125;48.752;9.168;2023-07-13T00:34:32;96815.81;;;18.77;54.41
55263;BME280;41125;48.752;9.168;2023-07-13T00:35:04;96816.97;;;18.75;54.69
55263;BME280;41125;48.752;9.168;2023-07-13T00:35:35;96820.50;;;18.76;54.43
55263;BME280;41125;48.752;9.168;2023-07-13T00:36:07;96815.81;;;18.77;54.64
55263;BME280;41125;48.752;9.168;2023-07-13T00:36:39;96817.75;;;18.76;54.66
55263;BME280;41125;48.752;9.168;2023-07-13T00:37:10;96818.56;;;18.77;54.64
55263;BME280;41125;48.752;9.168;2023-07-13T00:37:42;96816.28;;;18.79;54.46
55263;BME280;41125;48.752;9.168;2023-07-13T00:38:14;96815.13;;;18.80;54.11
55263;BME280;41125;48.752;9.168;2023-07-13T00:38:45;96808.03;;;18.79;53.67
55263;BME280;41125;48.752;9.168;2023-07-13T00:39:17;96813.06;;;18.77;54.19
55263;BME280;41125;48.752;9.168;2023-07-13T00:39:48;96815.81;;;18.77;53.85
55263;BME280;41125;48.752;9.168;2023-07-13T00:40:20;96816.97;;;18.75;53.96
55263;BME280;41125;48.752;9.168;2023-07-13T00:40:51;96824.75;;;18.73;54.19
55263;BME280;41125;48.752;9.168;2023-07-13T00:41:23;96818.38;;;18.69;54.52
55263;BME280;41125;48.752;9.168;2023-07-13T00:41:55;96819.06;;;18.66;54.71
55263;BME280;41125;48.752;9.168;2023-07-13T00:42:27;96827.31;;;18.66;54.84
55263;BME280;41125;48.752;9.168;2023-07-13T00:42:59;96827.66;;;18.65;54.79
55263;BME280;41125;48.752;9.168;2023-07-13T00:43:30;96829.16;;;18.62;55.29
55263;BME280;41125;48.752;9.168;2023-07-13T00:44:02;96824.81;;;18.61;55.06
55263;BME280;41125;48.752;9.168;2023-07-13T00:44:33;96824.31;;;18.59;55.28
55263;BME280;41125;48.752;9.168;2023-07-13T00:46:23;96839.09;;;18.55;55.62
55263;BME280;41125;48.752;9.168;2023-07-13T00:46:58;96841.38;;;18.53;55.81
55263;BME280;41125;48.752;9.168;2023-07-13T00:47:29;96841.38;;;18.53;56.95
55263;BME280;41125;48.752;9.168;2023-07-13T00:48:01;96842.88;;;18.50;56.60
55263;BME280;41125;48.752;9.168;2023-07-13T00:48:34;96844.34;;;18.48;56.99
55263;BME280;41125;48.752;9.168;2023-07-13T00:49:14;96838.06;;;18.47;57.04
55263;BME280;41125;48.752;9.168;2023-07-13T00:49:45;96849.72;;;18.44;57.49
55263;BME280;41125;48.752;9.168;2023-07-13T00:50:18;96852.03;;;18.42;57.98
55263;BME280;41125;48.752;9.168;2023-07-13T00:50:53;96851.09;;;18.38;58.25
55263;BME280;41125;48.752;9.168;2023-07-13T00:51:31;96847.47;;;18.34;58.31
55263;BME280;41125;48.752;9.168;2023-07-13T00:52:07;96843.81;;;18.30;58.40
55263;BME280;41125;48.752;9.168;2023-07-13T00:52:44;96849.75;;;18.32;58.92
55263;BME280;41125;48.752;9.168;2023-07-13T00:53:16;96839.91;;;18.31;57.89
55263;BME280;41125;48.752;9.168;2023-07-13T00:53:50;96845.41;;;18.31;56.57
55263;BME280;41125;48.752;9.168;2023-07-13T00:54:28;96843.81;;;18.30;57.07
55263;BME280;41125;48.752;9.168;2023-07-13T00:55:01;96846.09;;;18.28;57.40
55263;BME280;41125;48.752;9.168;2023-07-13T00:55:35;96847.91;;;18.24;57.72
55263;BME280;41125;48.752;9.168;2023-07-13T00:56:07;96847.47;;;18.22;57.61
55263;BME280;41125;48.752;9.168;2023-07-13T00:56:40;96849.41;;;18.21;58.04
55263;BME280;41125;48.752;9.168;2023-07-13T00:57:17;96844.25;;;18.20;57.82
55263;BME280;41125;48.752;9.168;2023-07-13T00:57:50;96851.22;;;18.17;59.73
55263;BME280;41125;48.752;9.168;2023-07-13T00:58:22;96859.00;;;18.15;59.69
55263;BME280;41125;48.752;9.168;2023-07-13T00:58:55;96853.41;;;18.12;59.46
55263;BME280;41125;48.752;9.168;2023-07-13T00:59:29;96859.56;;;18.08;59.50
55263;BME280;41125;48.752;9.168;2023-07-13T01:00:05;96860.25;;;18.05;60.23
55263;BME280;41125;48.752;9.168;2023-07-13T01:00:40;96858.66;;;18.04;59.68
55263;BME280;41125;48.752;9.168;2023-07-13T01:01:11;96850.75;;;18.03;59.64
55263;BME280;41125;48.752;9.168;2023-07-13T01:01:43;96853.87;;;18.01;59.42
55263;BME280;41125;48.752;9.168;2023-07-13T01:02:15;96858.19;;;18.02;59.76
55263;BME280;41125;48.752;9.168;2023-07-13T01:02:48;96859.78;;;18.03;59.03
55263;BME280;41125;48.752;9.168;2023-07-13T01:03:20;96852.34;;;18.04;59.58
55263;BME280;41125;48.752;9.168;2023-07-13T01:03:51;96857.03;;;18.03;59.48
55263;BME280;41125;48.752;9.168;2023-07-13T01:04:25;96861.72;;;18.03;59.75
55263;BME280;41125;48.752;9.168;2023-07-13T01:04:57;96860.50;;;18.00;59.14
55263;BME280;41125;48.752;9.168;2023-07-13T01:05:28;96853.75;;;17.98;59.60
55263;BME280;41125;48.752;9.168;2023-07-13T01:05:59;96857.97;;;17.95;60.43
55263;BME280;41125;48.752;9.168;2023-07-13T01:06:31;96859.13;;;17.94;60.26
55263;BME280;41125;48.752;9.168;2023-07-13T01:07:03;96861.84;;;17.94;60.14
55263;BME280;41125;48.752;9.168;2023-07-13T01:07:35;96859.13;;;17.94;60.28
55263;BME280;41125;48.752;9.168;2023-07-13T01:08:07;96862.31;;;17.96;60.17
55263;BME280;41125;48.752;9.168;2023-07-13T01:08:39;96868.16;;;17.95;60.98
55263;BME280;41125;48.752;9.168;2023-07-13T01:09:11;96861.84;;;17.94;60.34
55263;BME280;41125;48.752;9.168;2023-07-13T01:09:45;96865.41;;;17.95;60.60
55263;BME280;41125;48.752;9.168;2023-07-13T01:10:21;96863.00;;;17.93;60.47
55263;BME280;41125;48.752;9.168;2023-07-13T01:10:57;96863.00;;;17.93;60.56
55263;BME280;41125;48.752;9.168;2023-07-13T01:11:29;96860.25;;;17.93;60.08
55263;BME280;41125;48.752;9.168;2023-07-13T01:12:01;96857.50;;;17.93;59.92
55263;BME280;41125;48.752;9.168;2023-07-13T01:12:33;96852.03;;;17.93;59.66
55263;BME280;41125;48.752;9.168;2023-07-13T01:13:07;96856.38;;;17.94;59.62
55263;BME280;41125;48.752;9.168;2023-07-13T01:13:39;96861.41;;;17.92;59.67
55263;BME280;41125;48.752;9.168;2023-07-13T01:14:10;96863.34;;;17.92;59.56
55263;BME280;41125;48.752;9.168;2023-07-13T01:14:41;96864.16;;;17.92;59.74
55263;BME280;41125;48.752;9.168;2023-07-13T01:15:42;96864.47;;;17.91;60.26
55263;BME280;41125;48.752;9.168;2023-07-13T01:16:19;96856.59;;;17.89;58.18
55263;BME280;41125;48.752;9.168;2023-07-13T01:16:54;96864.81;;;17.89;59.95
55263;BME280;41125;48.752;9.168;2023-07-13T01:17:28;96860.47;;;17.88;59.23
55263;BME280;41125;48.752;9.168;2023-07-13T01:18:03;96863.22;;;17.88;59.37
55263;BME280;41125;48.752;9.168;2023-07-13T01:18:35;96858.53;;;17.89;59.26
55263;BME280;41125;48.752;9.168;2023-07-13T01:19:16;96854.97;;;17.88;58.79
55263;BME280;41125;48.752;9.168;2023-07-13T01:19:48;96847.88;;;17.87;58.59
55263;BME280;41125;48.752;9.168;2023-07-13T01:20:19;96852.25;;;17.88;58.71
55263;BME280;41125;48.752;9.168;2023-07-13T01:20:54;96857.38;;;17.90;58.92
55263;BME280;41125;48.752;9.168;2023-07-13T01:21:27;96855.91;;;17.92;58.55
55263;BME280;41125;48.752;9.168;2023-07-13T01:21:59;96857.50;;;17.93;58.21
55263;BME280;41125;48.752;9.168;2023-07-13T01:22:30;96846.53;;;17.93;57.71
55263;BME280;41125;48.752;9.168;2023-07-13T01:23:08;96852.03;;;17.93;57.76
55263;BME280;41125;48.752;9.168;2023-07-13T01:23:39;96853.63;;;17.94;58.34
55263;BME280;41125;48.752;9.168;2023-07-13T01:24:11;96848.81;;;17.91;57.65
55263;BME280;41125;48.752;9.168;2023-07-13T01:24:45;96854.78;;;17.93;58.37
55263;BME280;41125;48.752;9.168;2023-07-13T01:25:17;96852.03;;;17.93;58.17
55263;BME280;41125;48.752;9.168;2023-07-13T01:25:49;96853.63;;;17.94;58.20
55263;BME280;41125;48.752;9.168;2023-07-13T01:26:20;96859.13;;;17.94;58.25
55263;BME280;41125;48.752;9.168;2023-07-13T01:26:51;96860.72;;;17.95;58.49
55263;BME280;41125;48.752;9.168;2023-07-13T01:27:25;96856.72;;;17.93;58.83
55263;BME280;41125;48.752;9.168;2023-07-13T01:27:56;96861.41;;;17.92;58.89
55263;BME280;41125;48.752;9.168;2023-07-13T01:28:28;96854.31;;;17.91;58.45
55263;BME280;41125;48.752;9.168;2023-07-13T01:29:00;96851.09;;;17.89;58.57
55263;BME280;41125;48.752;9.168;2023-07-13T01:29:32;96860.47;;;17.88;58.51
55263;BME280;41125;48.752;9.168;2023-07-13T01:30:04;96860.00;;;17.86;59.12
55263;BME280;41125;48.752;9.168;2023-07-13T01:30:37;96861.16;;;17.85;58.98
55263;BME280;41125;48.752;9.168;2023-07-13T01:31:11;96857.94;;;17.83;59.49
55263;BME280;41125;48.752;9.168;2023-07-13T01:31:42;96859.09;;;17.82;59.20
55263;BME280;41125;48.752;9.168;2023-07-13T01:32:18;96861.37;;;17.80;59.86
55263;BME280;41125;48.752;9.168;2023-07-13T01:32:53;96855.06;;;17.80;59.62
55263;BME280;41125;48.752;9.168;2023-07-13T01:33:25;96861.72;;;17.79;59.46
55263;BME280;41125;48.752;9.168;2023-07-13T01:33:56;96856.09;;;17.75;58.96
55263;BME280;41125;48.752;9.168;2023-07-13T01:34:28;96863.06;;;17.72;59.00
55263;BME280;41125;48.752;9.168;2023-07-13T01:35:00;96862.25;;;17.72;59.09
55263;BME280;41125;48.752;9.168;2023-07-13T01:35:31;96861.44;;;17.71;59.44
55263;BME280;41125;48.752;9.168;2023-07-13T01:36:02;96861.78;;;17.70;59.53
55263;BME280;41125;48.752;9.168;2023-07-13T01:36:34;96861.31;;;17.68;59.47
55263;BME280;41125;48.752;9.168;2023-07-13T01:37:05;96872.31;;;17.68;60.24
55263;BME280;41125;48.752;9.168;2023-07-13T01:37:37;96866.69;;;17.64;60.41
55263;BME280;41125;48.752;9.168;2023-07-13T01:38:09;96866.22;;;17.62;60.41
55263;BME280;41125;48.752;9.168;2023-07-13T01:38:43;96865.75;;;17.60;60.11
55263;BME280;41125;48.752;9.168;2023-07-13T01:39:15;96863.34;;;17.59;60.35
55263;BME280;41125;48.752;9.168;2023-07-13T01:39:48;96867.56;;;17.56;60.64
55263;BME280;41125;48.752;9.168;2023-07-13T01:40:20;96867.91;;;17.55;60.54
55263;BME280;41125;48.752;9.168;2023-07-13T01:40:52;96859.22;;;17.53;60.90
55263;BME280;41125;48.752;9.168;2023-07-13T01:41:24;96865.38;;;17.50;60.85
55263;BME280;41125;48.752;9.168;2023-07-13T01:41:56;96861.37;;;17.47;61.06
55263;BME280;41125;48.752;9.168;2023-07-13T01:42:28;96866.06;;;17.47;61.38
55263;BME280;41125;48.752;9.168;2023-07-13T01:43:00;96866.72;;;17.43;61.37
55263;BME280;41125;48.752;9.168;2023-07-13T01:43:31;96871.75;;;17.41;61.38
55263;BME280;41125;48.752;9.168;2023-07-13T01:44:04;96862.56;;;17.37;61.02
55263;BME280;41125;48.752;9.168;2023-07-13T01:44:35;96866.13;;;17.38;60.65
55263;BME280;41125;48.752;9.168;2023-07-13T01:45:07;96869.66;;;17.38;60.98
55263;BME280;41125;48.752;9.168;2023-07-13T01:45:39;96866.94;;;17.38;60.96
55263;BME280;41125;48.752;9.168;2023-07-13T01:46:10;96862.13;;;17.35;61.51
55263;BME280;41125;48.752;9.168;2023-07-13T01:46:41;96865.56;;;17.32;61.14
55263;BME280;41125;48.752;9.168;2023-07-13T01:47:13;96863.16;;;17.31;61.24
55263;BME280;41125;48.752;9.168;2023-07-13T01:47:44;96862.34;;;17.30;61.52
55263;BME280;41125;48.752;9.168;2023-07-13T01:48:15;96861.53;;;17.30;61.29
55263;BME280;41125;48.752;9.168;2023-07-13T01:48:46;96867.38;;;17.28;60.92
55263;BME280;41125;48.752;9.168;2023-07-13T01:49:17;96859.13;;;17.28;61.12
55263;BME280;41125;48.752;9.168;2023-07-13T01:49:53;96857.53;;;17.27;61.41
55263;BME280;41125;48.752;9.168;2023-07-13T01:50:25;96866.09;;;17.26;62.48
55263;BME280;41125;48.752;9.168;2023-07-13T01:50:57;96862.88;;;17.24;62.14
55263;BME280;41125;48.752;9.168;2023-07-13T01:51:28;96863.56;;;17.21;61.45
55263;BME280;41125;48.752;9.168;2023-07-13T01:51:59;96862.75;;;17.20;61.54
55263;BME280;41125;48.752;9.168;2023-07-13T01:52:30;96859.53;;;17.18;61.93
55263;BME280;41125;48.752;9.168;2023-07-13T01:53:02;96861.16;;;17.19;61.51
55263;BME280;41125;48.752;9.168;2023-07-13T01:53:33;96857.28;;;17.20;61.13
55263;BME280;41125;48.752;9.168;2023-07-13T01:54:04;96854.06;;;17.18;61.53
55263;BME280;41125;48.752;9.168;2023-07-13T01:54:36;96848.44;;;17.15;60.96
55263;BME280;41125;48.752;9.168;2023-07-13T01:55:08;96857.59;;;17.19;61.08
55263;BME280;41125;48.752;9.168;2023-07-13T01:55:41;96860.34;;;17.19;61.52
55263;BME280;41125;48.752;9.168;2023-07-13T01:56:13;96861.81;;;17.16;60.87
55263;BME280;41125;48.752;9.168;2023-07-13T01:56:44;96858.59;;;17.14;60.76
55263;BME280;41125;48.752;9.168;2023-07-13T01:57:16;96858.59;;;17.14;62.43
55263;BME280;41125;48.752;9.168;2023-07-13T01:57:47;96869.09;;;17.12;61.78
55263;BME280;41125;48.752;9.168;2023-07-13T01:58:18;96860.87;;;17.12;61.53
55263;BME280;41125;48.752;9.168;2023-07-13T01:58:49;96870.25;;;17.11;61.72
55263;BME280;41125;48.752;9.168;2023-07-13T01:59:21;96862.69;;;17.08;61.70
55263;BME280;41125;48.752;9.168;2023-07-13T01:59:52;96857.66;;;17.10;61.60
55263;BME280;41125;48.752;9.168;2023-07-13T02:00:24;96859.28;;;17.11;61.57
55263;BME280;41125;48.752;9.168;2023-07-13T02:00:55;96859.28;;;17.11;61.61
55263;BME280;41125;48.752;9.168;2023-07-13T02:01:27;96864.62;;;17.07;61.76
55263;BME280;41125;48.752;9.168;2023-07-13T02:01:58;96870.91;;;17.08;61.67
55263;BME280;41125;48.752;9.168;2023-07-13T02:02:29;96870.09;;;17.07;62.25
55263;BME280;41125;48.752;9.168;2023-07-13T02:03:00;96872.38;;;17.05;61.99
55263;BME280;41125;48.752;9.168;2023-07-13T02:03:33;96861.94;;;16.99;60.51
55263;BME280;41125;48.752;9.168;2023-07-13T02:04:05;96865.38;;;16.96;62.29
55263;BME280;41125;48.752;9.168;2023-07-13T02:04:36;96866.53;;;16.95;61.51
55263;BME280;41125;48.752;9.168;2023-07-13T02:05:08;96873.12;;;16.94;61.69
55263;BME280;41125;48.752;9.168;2023-07-13T02:05:39;96872.00;;;16.95;61.94
55263;BME280;41125;48.752;9.168;2023-07-13T02:06:11;96872.00;;;16.95;62.03
55263;BME280;41125;48.752;9.168;2023-07-13T02:06:42;96870.41;;;16.94;61.98
55263;BME280;41125;48.752;9.168;2023-07-13T02:07:13;96868.78;;;16.93;61.70
55263;BME280;41125;48.752;9.168;2023-07-13T02:07:46;96863.31;;;16.93;61.81
55263;BME280;41125;48.752;9.168;2023-07-13T02:08:17;96871.19;;;16.94;62.47
55263;BME280;41125;48.752;9.168;2023-07-13T02:08:48;96868.78;;;16.93;63.06
55263;BME280;41125;48.752;9.168;2023-07-13T02:09:20;96866.38;;;16.91;62.96
55263;BME280;41125;48.752;9.168;2023-07-13T02:09:51;96868.31;;;16.91;62.55
55263;BME280;41125;48.752;9.168;2023-07-13T02:10:22;96861.56;;;16.88;61.60
55263;BME280;41125;48.752;9.168;2023-07-13T02:10:53;96868.50;;;16.86;62.50
55263;BME280;41125;48.752;9.168;2023-07-13T02:11:25;96874.00;;;16.86;62.60
55263;BME280;41125;48.752;9.168;2023-07-13T02:12:04;96874.47;;;16.88;62.36
55263;BME280;41125;48.752;9.168;2023-07-13T02:12:35;96877.69;;;16.90;63.35
55263;BME280;41125;48.752;9.168;2023-07-13T02:13:07;96874.13;;;16.89;62.63
55263;BME280;41125;48.752;9.168;2023-07-13T02:13:39;96875.59;;;16.87;62.37
55263;BME280;41125;48.752;9.168;2023-07-13T02:14:10;96870.91;;;16.87;62.83
55263;BME280;41125;48.752;9.168;2023-07-13T02:14:42;96881.88;;;16.87;62.46
55263;BME280;41125;48.752;9.168;2023-07-13T02:15:13;96884.63;;;16.87;62.25
55263;BME280;41125;48.752;9.168;2023-07-13T02:15:44;96878.81;;;16.89;63.04
55263;BME280;41125;48.752;9.168;2023-07-13T02:16:16;96876.41;;;16.87;62.97
55263;BME280;41125;48.752;9.168;2023-07-13T02:16:47;96875.59;;;16.87;62.68
55263;BME280;41125;48.752;9.168;2023-07-13T02:17:19;96879.94;;;16.88;63.05
55263;BME280;41125;48.752;9.168;2023-07-13T02:17:53;96872.06;;;16.86;63.27
55263;BME280;41125;48.752;9.168;2023-07-13T02:18:24;96878.69;;;16.85;63.17
55263;BME280;41125;48.752;9.168;2023-07-13T02:18:56;96870.13;;;16.87;62.57
55263;BME280;41125;48.752;9.168;2023-07-13T02:19:27;96875.59;;;16.87;61.77
55263;BME280;41125;48.752;9.168;2023-07-13T02:19:59;96880.62;;;16.85;62.00
55263;BME280;41125;48.752;9.168;2023-07-13T02:20:30;96877.88;;;16.85;62.42
55263;BME280;41125;48.752;9.168;2023-07-13T02:21:01;96877.41;;;16.83;62.72
55263;BME280;41125;48.752;9.168;2023-07-13T02:21:33;96877.41;;;16.83;63.04
55263;BME280;41125;48.752;9.168;2023-07-13T02:22:04;96874.19;;;16.81;62.33
55263;BME280;41125;48.752;9.168;2023-07-13T02:22:36;96878.53;;;16.82;62.02
55263;BME280;41125;48.752;9.168;2023-07-13T02:23:10;96876.25;;;16.84;61.86
55263;BME280;41125;48.752;9.168;2023-07-13T02:23:41;96872.88;;;16.87;61.80
55263;BME280;41125;48.752;9.168;2023-07-13T02:24:12;96869.78;;;16.88;61.43
55263;BME280;41125;48.752;9.168;2023-07-13T02:24:49;96867.84;;;16.89;61.51
55263;BME280;41125;48.752;9.168;2023-07-13T02:25:20;96877.22;;;16.88;61.49
55263;BME280;41125;48.752;9.168;2023-07-13T02:25:55;96872.88;;;16.87;61.45
55263;BME280;41125;48.752;9.168;2023-07-13T02:26:27;96871.72;;;16.88;61.42
55263;BME280;41125;48.752;9.168;2023-07-13T02:26:58;96871.25;;;16.86;61.50
55263;BME280;41125;48.752;9.168;2023-07-13T02:27:30;96874.00;;;16.86;61.05
55263;BME280;41125;48.752;9.168;2023-07-13T02:28:01;96872.53;;;16.88;61.01
55263;BME280;41125;48.752;9.168;2023-07-13T02:28:33;96871.06;;;16.91;60.86
55263;BME280;41125;48.752;9.168;2023-07-13T02:29:04;96868.78;;;16.93;60.32
55263;BME280;41125;48.752;9.168;2023-07-13T02:29:37;96868.78;;;16.93;60.60
55263;BME280;41125;48.752;9.168;2023-07-13T02:30:09;96871.19;;;16.94;60.39
55263;BME280;41125;48.752;9.168;2023-07-13T02:30:41;96868.47;;;16.94;60.60
55263;BME280;41125;48.752;9.168;2023-07-13T02:31:14;96869.72;;;16.97;60.51
55263;BME280;41125;48.752;9.168;2023-07-13T02:31:46;96878.41;;;16.99;60.20
55263;BME280;41125;48.752;9.168;2023-07-13T02:32:17;96872.91;;;16.99;59.95
55263;BME280;41125;48.752;9.168;2023-07-13T02:32:49;96870.63;;;17.01;60.10
55263;BME280;41125;48.752;9.168;2023-07-13T02:33:20;96876.13;;;17.01;60.03
55263;BME280;41125;48.752;9.168;2023-07-13T02:33:51;96870.63;;;17.01;60.58
55263;BME280;41125;48.752;9.168;2023-07-13T02:34:22;96872.25;;;17.02;60.39
55263;BME280;41125;48.752;9.168;2023-07-13T02:34:53;96872.25;;;17.02;60.64
55263;BME280;41125;48.752;9.168;2023-07-13T02:35:25;96874.97;;;17.02;60.75
55263;BME280;41125;48.752;9.168;2023-07-13T02:35:56;96876.13;;;17.01;60.97
55263;BME280;41125;48.752;9.168;2023-07-13T02:36:28;96873.72;;;16.99;60.65
55263;BME280;41125;48.752;9.168;2023-07-13T02:36:59;96872.91;;;16.99;60.81
55263;BME280;41125;48.752;9.168;2023-07-13T02:37:31;96878.41;;;16.99;60.99
55263;BME280;41125;48.752;9.168;2023-07-13T02:38:02;96874.84;;;16.98;61.41
55263;BME280;41125;48.752;9.168;2023-07-13T02:38:34;96879.19;;;16.99;60.48
55263;BME280;41125;48.752;9.168;2023-07-13T02:39:07;96882.75;;;17.00;60.62
55263;BME280;41125;48.752;9.168;2023-07-13T02:39:39;96882.31;;;16.98;60.92
55263;BME280;41125;48.752;9.168;2023-07-13T02:40:10;96880.69;;;16.97;60.84
55263;BME280;41125;48.752;9.168;2023-07-13T02:40:42;96885.03;;;16.98;60.46
55263;BME280;41125;48.752;9.168;2023-07-13T02:41:13;96877.16;;;16.96;60.75
55263;BME280;41125;48.752;9.168;2023-07-13T02:41:44;96884.56;;;16.96;60.74
55263;BME280;41125;48.752;9.168;2023-07-13T02:42:15;96886.50;;;16.95;60.74
55263;BME280;41125;48.752;9.168;2023-07-13T02:42:47;96886.50;;;16.95;60.61
55263;BME280;41125;48.752;9.168;2023-07-13T02:43:18;96884.56;;;16.96;61.15
55263;BME280;41125;48.752;9.168;2023-07-13T02:43:49;96884.91;;;16.94;60.98
55263;BME280;41125;48.752;9.168;2023-07-13T02:44:21;96880.56;;;16.93;60.63
55263;BME280;41125;48.752;9.168;2023-07-13T02:44:56;96879.75;;;16.93;60.64
55263;BME280;41125;48.752;9.168;2023-07-13T02:45:28;96886.84;;;16.94;61.01
55263;BME280;41125;48.752;9.168;2023-07-13T02:46:01;96884.44;;;16.92;60.95
55263;BME280;41125;48.752;9.168;2023-07-13T02:46:37;96883.63;;;16.92;61.02
55263;BME280;41125;48.752;9.168;2023-07-13T02:47:09;96881.34;;;16.94;60.81
55263;BME280;41125;48.752;9.168;2023-07-13T02:47:41;96878.16;;;16.92;61.08
55263;BME280;41125;48.752;9.168;2023-07-13T02:48:14;96886.03;;;16.93;60.73
55263;BME280;41125;48.752;9.168;2023-07-13T02:48:45;96879.41;;;16.94;60.84
55263;BME280;41125;48.752;9.168;2023-07-13T02:49:17;96877.47;;;16.95;60.44
55263;BME280;41125;48.752;9.168;2023-07-13T02:49:51;96884.09;;;16.94;61.33
55263;BME280;41125;48.752;9.168;2023-07-13T02:50:23;96877.00;;;16.93;60.92
55263;BME280;41125;48.752;9.168;2023-07-13T02:50:54;96878.16;;;16.92;61.41
55263;BME280;41125;48.752;9.168;2023-07-13T02:51:25;96874.94;;;16.90;61.21
55263;BME280;41125;48.752;9.168;2023-07-13T02:51:57;96870.59;;;16.89;61.75
55263;BME280;41125;48.752;9.168;2023-07-13T02:52:28;96878.47;;;16.90;61.48